createdAt,value
2018-12-14T00:00:02.423Z,23.70
2018-12-14T00:02:34.911Z,21.63
2018-12-14T00:05:07.592Z,25.50
2018-12-14T00:07:44.195Z,20.37
2018-12-14T00:10:16.834Z,20.77
2018-12-14T00:12:50.206Z,23.63
2018-12-14T00:15:22.747Z,21.83
2018-12-14T00:17:55.283Z,19.83
2018-12-14T00:20:28.467Z,22.00
2018-12-14T00:23:01.526Z,20.87
2018-12-14T00:25:34.007Z,18.43
2018-12-14T00:28:06.379Z,19.10
2018-12-14T00:30:39.098Z,19.73
2018-12-14T00:33:11.663Z,21.17
2018-12-14T00:35:44.393Z,20.73
2018-12-14T00:38:16.952Z,20.80
2018-12-14T00:40:49.633Z,19.23
2018-12-14T00:43:22.167Z,20.73
2018-12-14T00:45:54.698Z,19.30
2018-12-14T00:48:27.389Z,17.53
2018-12-14T00:51:00.940Z,22.17
2018-12-14T00:53:33.457Z,19.00
2018-12-14T00:56:06.008Z,20.10
2018-12-14T00:58:38.693Z,18.77
2018-12-14T01:01:11.448Z,19.00
2018-12-14T01:03:43.953Z,17.13
2018-12-14T01:06:16.585Z,20.73
2018-12-14T01:08:49.242Z,18.70
2018-12-14T01:11:22.802Z,20.37
2018-12-14T01:13:58.017Z,17.60
2018-12-14T01:16:30.435Z,18.20
2018-12-14T01:19:03.091Z,17.93
2018-12-14T01:21:35.726Z,17.53
2018-12-14T01:24:08.337Z,18.43
2018-12-14T01:26:40.903Z,21.33
2018-12-14T01:29:13.462Z,22.50
2018-12-14T01:31:45.992Z,19.80
2018-12-14T01:34:18.583Z,19.37
2018-12-14T01:36:51.267Z,19.63
2018-12-14T01:39:23.923Z,19.57
2018-12-14T01:41:56.397Z,19.00
2018-12-14T01:44:29.027Z,19.97
2018-12-14T01:47:01.634Z,22.13
2018-12-14T01:49:34.185Z,21.67
2018-12-14T01:52:07.094Z,24.00
2018-12-14T01:54:39.720Z,19.17
2018-12-14T01:57:12.156Z,20.10
2018-12-14T01:59:44.554Z,20.13
2018-12-14T02:03:20.860Z,20.60
2018-12-14T02:05:53.683Z,21.30
2018-12-14T02:08:26.608Z,19.57
2018-12-14T02:10:59.423Z,19.43
2018-12-14T02:13:31.977Z,19.63
2018-12-14T02:16:04.531Z,21.30
2018-12-14T02:18:37.251Z,24.30
2018-12-14T02:21:09.937Z,19.10
2018-12-14T02:23:42.498Z,22.03
2018-12-14T02:26:15.146Z,21.70
2018-12-14T02:28:47.741Z,20.03
2018-12-14T02:31:20.337Z,21.23
2018-12-14T02:33:53.068Z,19.70
2018-12-14T02:36:25.971Z,17.50
2018-12-14T02:38:58.586Z,19.57
2018-12-14T02:41:30.937Z,18.30
2018-12-14T02:44:03.945Z,16.67
2018-12-14T02:46:36.517Z,21.40
2018-12-14T02:49:09.301Z,19.40
2018-12-14T02:51:41.814Z,17.90
2018-12-14T02:54:14.387Z,19.47
2018-12-14T02:56:46.903Z,18.73
2018-12-14T02:59:19.391Z,18.93
2018-12-14T03:01:51.825Z,20.97
2018-12-14T03:04:24.449Z,19.60
2018-12-14T03:06:56.941Z,18.17
2018-12-14T03:09:29.670Z,23.00
2018-12-14T03:12:02.120Z,19.13
2018-12-14T03:14:34.881Z,21.67
2018-12-14T03:17:07.501Z,20.57
2018-12-14T03:19:40.085Z,22.60
2018-12-14T03:22:14.026Z,25.33
2018-12-14T03:24:46.651Z,21.03
2018-12-14T03:27:19.140Z,22.90
2018-12-14T03:29:51.579Z,23.43
2018-12-14T03:32:23.983Z,22.70
2018-12-14T03:34:56.507Z,24.27
2018-12-14T03:37:29.035Z,24.50
2018-12-14T03:40:01.689Z,22.60
2018-12-14T03:42:34.811Z,23.97
2018-12-14T03:45:07.648Z,20.77
2018-12-14T03:47:40.294Z,24.20
2018-12-14T03:50:12.696Z,22.70
2018-12-14T03:52:45.276Z,21.47
2018-12-14T03:55:18.388Z,25.50
2018-12-14T03:57:51.637Z,28.07
2018-12-14T04:00:24.361Z,22.30
2018-12-14T04:02:58.319Z,24.43
2018-12-14T04:05:31.313Z,24.33
2018-12-14T04:08:03.899Z,22.83
2018-12-14T04:10:36.423Z,25.33
2018-12-14T04:13:08.840Z,23.40
2018-12-14T04:18:45.130Z,30.13
2018-12-14T04:21:18.552Z,22.23
2018-12-14T04:23:51.267Z,24.20
2018-12-14T04:26:23.819Z,27.77
2018-12-14T04:28:56.476Z,27.50
2018-12-14T04:31:28.866Z,25.53
2018-12-14T04:34:01.161Z,27.00
2018-12-14T04:36:33.529Z,24.20
2018-12-14T04:39:06.650Z,25.80
2018-12-14T04:41:39.169Z,28.13
2018-12-14T04:44:11.461Z,28.43
2018-12-14T04:46:43.817Z,28.83
2018-12-14T04:49:16.236Z,29.10
2018-12-14T04:51:48.620Z,26.20
2018-12-14T04:54:20.905Z,28.97
2018-12-14T04:56:53.390Z,28.13
2018-12-14T04:59:25.688Z,30.17
2018-12-14T05:01:58.173Z,30.37
2018-12-14T05:04:30.615Z,29.80
2018-12-14T05:07:03.272Z,31.27
2018-12-14T05:09:35.569Z,27.93
2018-12-14T05:12:08.056Z,28.60
2018-12-14T05:14:40.664Z,26.27
2018-12-14T05:17:13.010Z,29.87
2018-12-14T05:19:45.360Z,28.67
2018-12-14T05:22:17.801Z,27.03
2018-12-14T05:24:50.278Z,28.20
2018-12-14T05:27:22.797Z,29.53
2018-12-14T05:29:55.666Z,30.97
2018-12-14T05:32:27.963Z,29.23
2018-12-14T05:35:00.482Z,28.57
2018-12-14T05:37:32.798Z,31.30
2018-12-14T05:40:05.284Z,31.90
2018-12-14T05:42:37.611Z,27.17
2018-12-14T05:45:10.030Z,32.73
2018-12-14T05:47:43.201Z,30.67
2018-12-14T05:50:15.548Z,29.67
2018-12-14T05:52:47.857Z,30.37
2018-12-14T05:55:20.169Z,29.63
2018-12-14T05:57:52.495Z,30.27
2018-12-14T06:00:24.805Z,30.27
2018-12-14T06:02:57.120Z,30.80
2018-12-14T06:05:29.448Z,31.40
2018-12-14T06:08:01.881Z,35.10
2018-12-14T06:10:34.333Z,34.40
2018-12-14T06:13:09.176Z,28.67
2018-12-14T06:15:41.121Z,24.27
2018-12-14T06:18:13.469Z,27.07
2018-12-14T06:20:46.541Z,27.67
2018-12-14T06:23:19.018Z,30.07
2018-12-14T06:25:51.569Z,31.13
2018-12-14T06:28:24.162Z,31.43
2018-12-14T06:30:56.557Z,28.13
2018-12-14T06:33:29.112Z,30.97
2018-12-14T06:36:02.005Z,28.40
2018-12-14T06:38:34.676Z,31.00
2018-12-14T06:41:06.987Z,30.97
2018-12-14T06:43:39.499Z,29.17
2018-12-14T06:46:11.945Z,30.87
2018-12-14T06:48:44.475Z,26.60
2018-12-14T06:51:16.900Z,32.03
2018-12-14T06:53:49.256Z,30.80
2018-12-14T06:56:21.588Z,29.80
2018-12-14T06:58:54.166Z,28.47
2018-12-14T07:01:26.469Z,32.17
2018-12-14T07:03:58.851Z,27.90
2018-12-14T07:06:31.205Z,28.60
2018-12-14T07:09:05.135Z,28.83
2018-12-14T07:11:37.677Z,32.47
2018-12-14T07:14:10.049Z,29.87
2018-12-14T07:16:42.703Z,27.07
2018-12-14T07:19:15.032Z,29.57
2018-12-14T07:21:47.427Z,28.10
2018-12-14T07:24:19.738Z,32.40
2018-12-14T07:26:52.492Z,27.17
2018-12-14T07:29:24.861Z,29.23
2018-12-14T07:31:57.239Z,26.40
2018-12-14T07:34:29.532Z,29.03
2018-12-14T07:37:01.910Z,32.60
2018-12-14T07:39:34.272Z,29.30
2018-12-14T07:42:06.756Z,27.77
2018-12-14T07:44:39.933Z,30.80
2018-12-14T07:47:12.657Z,32.10
2018-12-14T07:49:45.086Z,30.60
2018-12-14T07:52:17.465Z,33.33
2018-12-14T07:54:49.813Z,29.70
2018-12-14T07:57:22.187Z,30.60
2018-12-14T07:59:54.620Z,30.40
2018-12-14T08:02:26.952Z,34.47
2018-12-14T08:04:59.291Z,32.20
2018-12-14T08:07:31.790Z,30.27
2018-12-14T08:10:04.906Z,32.00
2018-12-14T08:12:37.334Z,33.23
2018-12-14T08:15:11.469Z,30.50
2018-12-14T08:17:44.035Z,33.73
2018-12-14T08:20:17.219Z,28.70
2018-12-14T08:22:49.869Z,32.10
2018-12-14T08:25:22.461Z,31.30
2018-12-14T08:27:54.958Z,30.70
2018-12-14T08:30:27.437Z,30.87
2018-12-14T08:32:59.737Z,28.97
2018-12-14T08:35:32.123Z,29.80
2018-12-14T08:38:04.518Z,30.83
2018-12-14T08:40:36.960Z,30.80
2018-12-14T08:43:09.316Z,26.70
2018-12-14T08:45:41.797Z,27.90
2018-12-14T08:48:14.370Z,27.10
2018-12-14T08:50:46.915Z,27.13
2018-12-14T08:53:19.606Z,29.03
2018-12-14T08:55:52.104Z,29.70
2018-12-14T08:58:24.548Z,31.00
2018-12-14T09:00:56.882Z,26.60
2018-12-14T09:03:29.600Z,29.23
2018-12-14T09:06:02.712Z,26.47
2018-12-14T09:08:35.185Z,26.87
2018-12-14T09:11:07.571Z,28.13
2018-12-14T09:13:39.962Z,26.97
2018-12-14T09:16:12.438Z,26.93
2018-12-14T09:18:45.297Z,26.03
2018-12-14T09:21:17.723Z,25.17
2018-12-14T09:23:50.090Z,27.17
2018-12-14T09:26:22.637Z,29.17
2018-12-14T09:28:55.309Z,25.77
2018-12-14T09:31:28.216Z,24.60
2018-12-14T09:34:00.593Z,27.37
2018-12-14T09:36:32.907Z,31.70
2018-12-14T09:39:06.209Z,29.23
2018-12-14T09:41:38.530Z,29.10
2018-12-14T09:44:10.913Z,29.23
2018-12-14T09:46:43.274Z,24.27
2018-12-14T09:49:16.637Z,26.40
2018-12-14T09:51:49.175Z,30.07
2018-12-14T09:54:21.630Z,25.37
2018-12-14T09:56:53.981Z,21.70
2018-12-14T09:59:26.380Z,22.17
2018-12-14T10:01:58.724Z,24.63
2018-12-14T10:04:31.124Z,27.40
2018-12-14T10:07:03.674Z,27.70
2018-12-14T10:09:36.175Z,19.80
2018-12-14T10:12:08.704Z,20.43
2018-12-14T10:14:41.779Z,22.70
2018-12-14T10:17:14.214Z,21.03
2018-12-14T10:19:46.665Z,21.63
2018-12-14T10:22:19.116Z,20.53
2018-12-14T10:24:51.768Z,17.93
2018-12-14T10:27:24.077Z,22.57
2018-12-14T10:29:56.607Z,20.00
2018-12-14T10:32:28.999Z,19.13
2018-12-14T10:35:01.385Z,22.53
2018-12-14T10:37:33.760Z,20.97
2018-12-14T10:40:08.156Z,16.40
2018-12-14T10:42:40.469Z,20.63
2018-12-14T10:45:12.843Z,24.50
2018-12-14T10:47:45.342Z,18.57
2018-12-14T10:50:17.700Z,18.40
2018-12-14T10:52:50.109Z,15.70
2018-12-14T10:55:22.573Z,17.97
2018-12-14T10:57:55.149Z,17.60
2018-12-14T11:00:33.268Z,17.27
2018-12-14T11:03:05.697Z,17.10
2018-12-14T11:05:38.069Z,15.07
2018-12-14T11:08:10.405Z,20.30
2018-12-14T11:10:42.788Z,19.67
2018-12-14T11:13:15.333Z,15.37
2018-12-14T11:15:47.803Z,15.47
2018-12-14T11:18:20.097Z,16.30
2018-12-14T11:20:52.508Z,17.97
2018-12-14T11:23:24.887Z,11.53
2018-12-14T11:25:57.365Z,15.67
2018-12-14T11:28:29.739Z,13.07
2018-12-14T11:31:02.076Z,14.17
2018-12-14T11:33:34.634Z,15.70
2018-12-14T11:36:07.130Z,17.20
2018-12-14T11:38:39.441Z,16.17
2018-12-14T11:41:18.291Z,14.00
2018-12-14T11:43:46.175Z,14.47
2018-12-14T11:46:18.652Z,16.47
2018-12-14T11:48:50.990Z,15.23
2018-12-14T11:51:25.125Z,15.83
2018-12-14T11:55:00.537Z,14.83
2018-12-14T11:57:33.116Z,16.43
2018-12-14T12:00:11.363Z,14.87
2018-12-14T12:02:43.796Z,14.20
2018-12-14T12:05:16.100Z,14.43
2018-12-14T12:07:48.891Z,14.00
2018-12-14T12:10:21.255Z,14.77
2018-12-14T12:12:53.772Z,13.63
2018-12-14T12:15:26.168Z,16.27
2018-12-14T12:17:58.561Z,16.27
2018-12-14T12:20:30.904Z,13.77
2018-12-14T12:23:03.379Z,15.20
2018-12-14T12:25:35.720Z,14.57
2018-12-14T12:28:08.179Z,12.63
2018-12-14T12:30:40.658Z,11.90
2018-12-14T12:33:13.024Z,12.57
2018-12-14T12:35:45.588Z,29.93
2018-12-14T12:38:17.901Z,16.30
2018-12-14T12:40:50.304Z,15.83
2018-12-14T12:43:22.689Z,12.70
2018-12-14T12:45:55.038Z,13.93
2018-12-14T12:48:27.484Z,13.47
2018-12-14T12:51:03.093Z,13.03
2018-12-14T12:53:34.425Z,15.17
2018-12-14T12:56:07.216Z,11.33
2018-12-14T12:58:39.683Z,11.47
2018-12-14T13:01:12.100Z,14.93
2018-12-14T13:03:45.111Z,15.13
2018-12-14T13:06:18.438Z,15.90
2018-12-14T13:08:50.942Z,12.13
2018-12-14T13:11:23.266Z,9.73
2018-12-14T13:13:55.690Z,12.57
2018-12-14T13:16:28.236Z,12.67
2018-12-14T13:19:00.644Z,13.57
2018-12-14T13:21:32.966Z,13.00
2018-12-14T13:24:05.471Z,12.70
2018-12-14T13:26:37.809Z,15.93
2018-12-14T13:29:10.314Z,15.57
2018-12-14T13:31:42.679Z,13.43
2018-12-14T13:34:15.248Z,17.70
2018-12-14T13:36:47.989Z,13.17
2018-12-14T13:39:20.606Z,16.97
2018-12-14T13:41:52.914Z,17.67
2018-12-14T13:44:26.332Z,19.17
2018-12-14T13:46:58.684Z,21.10
2018-12-14T13:49:32.639Z,17.80
2018-12-14T13:52:05.090Z,19.97
2018-12-14T13:54:37.722Z,20.27
2018-12-14T13:57:10.123Z,16.33
2018-12-14T13:59:42.568Z,17.90
2018-12-14T14:02:14.900Z,15.37
2018-12-14T14:04:47.254Z,19.93
2018-12-14T14:07:19.641Z,18.13
2018-12-14T14:09:52.144Z,18.67
2018-12-14T14:12:30.651Z,16.70
2018-12-14T14:14:59.387Z,16.00
2018-12-14T14:17:32.345Z,19.97
2018-12-14T14:20:04.858Z,18.63
2018-12-14T14:22:37.206Z,22.00
2018-12-14T14:25:09.870Z,23.67
2018-12-14T14:27:42.221Z,31.60
2018-12-14T14:30:14.799Z,21.40
2018-12-14T14:32:47.319Z,22.33
2018-12-14T14:35:19.682Z,22.17
2018-12-14T14:37:57.367Z,20.40
2018-12-14T14:40:26.512Z,21.07
2018-12-14T14:42:58.965Z,24.33
2018-12-14T14:45:31.605Z,21.07
2018-12-14T14:48:03.919Z,21.30
2018-12-14T14:50:36.442Z,22.40
2018-12-14T14:53:08.756Z,22.80
2018-12-14T14:55:41.583Z,22.40
2018-12-14T14:58:14.085Z,24.33
2018-12-14T15:00:46.657Z,23.27
2018-12-14T15:03:19.136Z,21.90
2018-12-14T15:05:52.597Z,27.13
2018-12-14T15:08:24.931Z,24.50
2018-12-14T15:10:57.441Z,25.07
2018-12-14T15:13:29.750Z,26.60
2018-12-14T15:16:02.295Z,29.80
2018-12-14T15:18:35.010Z,38.83
2018-12-14T15:21:07.612Z,34.33
2018-12-14T15:23:39.923Z,91.20
2018-12-14T15:26:12.498Z,33.13
2018-12-14T15:28:44.833Z,27.63
2018-12-14T15:31:17.518Z,30.77
2018-12-14T15:33:49.818Z,31.87
2018-12-14T15:36:22.170Z,27.90
2018-12-14T15:38:54.777Z,34.47
2018-12-14T15:41:27.248Z,33.17
2018-12-14T15:43:59.585Z,27.83
2018-12-14T15:46:31.974Z,37.40
2018-12-14T15:49:04.301Z,36.13
2018-12-14T15:51:36.727Z,33.10
2018-12-14T15:54:09.032Z,33.90
2018-12-14T15:56:41.501Z,30.50
2018-12-14T15:59:13.851Z,32.70
2018-12-14T16:01:46.414Z,36.33
2018-12-14T16:04:18.778Z,32.37
2018-12-14T16:06:51.232Z,35.37
2018-12-14T16:09:23.940Z,36.57
2018-12-14T16:11:57.349Z,33.77
2018-12-14T16:14:34.353Z,33.93
2018-12-14T16:17:04.585Z,38.77
2018-12-14T16:19:37.182Z,35.60
2018-12-14T16:22:09.581Z,35.43
2018-12-14T16:24:41.951Z,36.60
2018-12-14T16:27:14.553Z,37.80
2018-12-14T16:29:46.984Z,35.17
2018-12-14T16:32:19.386Z,37.63
2018-12-14T16:34:51.825Z,35.93
2018-12-14T16:37:24.240Z,36.27
2018-12-14T16:39:57.336Z,36.73
2018-12-14T16:42:29.707Z,38.13
2018-12-14T16:45:02.185Z,34.67
2018-12-14T16:47:34.604Z,34.97
2018-12-14T16:50:07.080Z,34.30
2018-12-14T16:52:39.504Z,38.00
2018-12-14T16:55:12.026Z,44.73
2018-12-14T16:57:44.507Z,38.33
2018-12-14T17:00:17.154Z,41.70
2018-12-14T17:02:49.608Z,38.13
2018-12-14T17:05:21.944Z,37.90
2018-12-14T17:07:54.315Z,42.07
2018-12-14T17:10:26.718Z,43.93
2018-12-14T17:12:59.073Z,39.57
2018-12-14T17:15:33.418Z,38.63
2018-12-14T17:18:05.816Z,38.67
2018-12-14T17:20:38.565Z,42.70
2018-12-14T17:23:10.988Z,40.40
2018-12-14T17:25:43.416Z,38.77
2018-12-14T17:28:15.865Z,39.50
2018-12-14T17:30:48.293Z,35.63
2018-12-14T17:33:20.607Z,39.77
2018-12-14T17:35:52.957Z,44.83
2018-12-14T17:38:25.399Z,49.93
2018-12-14T17:40:58.011Z,43.83
2018-12-14T17:43:30.436Z,41.87
2018-12-14T17:46:03.015Z,46.87
2018-12-14T17:48:35.457Z,45.33
2018-12-14T17:51:09.946Z,42.23
2018-12-14T17:53:42.308Z,43.40
2018-12-14T17:56:14.737Z,46.50
2018-12-14T17:58:47.318Z,42.70
2018-12-14T18:01:19.908Z,42.27
2018-12-14T18:03:52.331Z,37.47
2018-12-14T18:06:24.707Z,41.90
2018-12-14T18:08:57.144Z,40.77
2018-12-14T18:11:29.552Z,36.10
2018-12-14T18:14:02.020Z,39.40
2018-12-14T18:16:34.714Z,41.43
2018-12-14T18:19:07.275Z,39.30
2018-12-14T18:21:39.650Z,41.80
2018-12-14T18:24:11.973Z,42.77
2018-12-14T18:26:44.337Z,44.93
2018-12-14T18:29:16.668Z,38.93
2018-12-14T18:31:49.008Z,39.07
2018-12-14T18:34:21.453Z,40.27
2018-12-14T18:36:53.817Z,39.73
2018-12-14T18:39:26.135Z,42.07
2018-12-14T18:41:58.524Z,42.33
2018-12-14T18:44:30.841Z,42.10
2018-12-14T18:47:03.260Z,41.07
2018-12-14T18:49:35.575Z,41.70
2018-12-14T18:52:07.971Z,43.03
2018-12-14T18:54:40.331Z,42.33
2018-12-14T18:57:12.813Z,42.30
2018-12-14T18:59:45.167Z,44.20
2018-12-14T19:02:17.622Z,44.87
2018-12-14T19:04:50.129Z,43.57
2018-12-14T19:07:22.538Z,51.53
2018-12-14T19:09:54.928Z,44.67
2018-12-14T19:12:27.748Z,41.67
2018-12-14T19:15:00.364Z,46.00
2018-12-14T19:17:32.723Z,43.73
2018-12-14T19:20:05.733Z,45.37
2018-12-14T19:22:38.206Z,44.43
2018-12-14T19:25:10.542Z,43.40
2018-12-14T19:27:43.037Z,44.17
2018-12-14T19:30:15.487Z,43.33
2018-12-14T19:32:47.885Z,46.67
2018-12-14T19:35:20.353Z,47.17
2018-12-14T19:37:52.780Z,43.90
2018-12-14T19:40:25.136Z,44.87
2018-12-14T19:42:57.741Z,43.90
2018-12-14T19:45:30.514Z,41.37
2018-12-14T19:48:03.520Z,40.27
2018-12-14T19:50:35.844Z,44.50
2018-12-14T19:53:08.217Z,40.07
2018-12-14T19:55:40.534Z,43.90
2018-12-14T19:58:12.884Z,45.63
2018-12-14T20:00:45.188Z,42.73
2018-12-14T20:03:17.536Z,43.23
2018-12-14T20:05:49.932Z,39.13
2018-12-14T20:08:22.274Z,41.10
2018-12-14T20:10:54.688Z,44.10
2018-12-14T20:13:27.112Z,45.73
2018-12-14T20:15:59.500Z,40.83
2018-12-14T20:18:31.980Z,37.83
2018-12-14T20:21:04.332Z,41.03
2018-12-14T20:23:36.734Z,42.07
2018-12-14T20:26:09.099Z,41.70
2018-12-14T20:28:41.493Z,44.60
2018-12-14T20:31:13.874Z,46.23
2018-12-14T20:33:46.384Z,43.30
2018-12-14T20:36:18.702Z,39.17
2018-12-14T20:38:51.020Z,40.97
2018-12-14T20:41:23.384Z,40.00
2018-12-14T20:43:55.862Z,37.60
2018-12-14T20:46:28.332Z,37.23
2018-12-14T20:49:00.710Z,37.90
2018-12-14T20:51:33.071Z,38.63
2018-12-14T20:54:05.429Z,37.67
2018-12-14T20:56:37.844Z,35.60
2018-12-14T20:59:10.212Z,39.40
2018-12-14T21:01:42.605Z,38.67
2018-12-14T21:04:15.108Z,33.13
2018-12-14T21:06:47.610Z,36.93
2018-12-14T21:09:19.984Z,31.70
2018-12-14T21:11:52.433Z,38.33
2018-12-14T21:14:25.000Z,35.40
2018-12-14T21:16:57.345Z,32.13
2018-12-14T21:19:29.904Z,36.17
2018-12-14T21:22:02.284Z,32.47
2018-12-14T21:24:34.808Z,32.93
2018-12-14T21:27:07.445Z,32.93
2018-12-14T21:29:39.771Z,33.07
2018-12-14T21:32:12.143Z,34.20
2018-12-14T21:34:44.500Z,29.97
2018-12-14T21:37:16.888Z,32.30
2018-12-14T21:39:49.259Z,30.37
2018-12-14T21:42:21.679Z,34.67
2018-12-14T21:44:55.173Z,32.37
2018-12-14T21:47:27.694Z,34.37
2018-12-14T21:50:00.056Z,30.40
2018-12-14T21:52:32.640Z,30.53
2018-12-14T21:55:06.028Z,33.73
2018-12-14T21:57:39.106Z,29.90
2018-12-14T22:00:11.736Z,34.80
2018-12-14T22:02:44.069Z,34.60
2018-12-14T22:05:17.933Z,35.77
2018-12-14T22:07:50.253Z,33.27
2018-12-14T22:10:22.805Z,35.63
2018-12-14T22:12:55.392Z,36.10
2018-12-14T22:15:27.949Z,32.53
2018-12-14T22:18:00.322Z,33.83
2018-12-14T22:20:32.792Z,33.87
2018-12-14T22:23:06.067Z,34.37
2018-12-14T22:25:38.745Z,33.20
2018-12-14T22:28:11.233Z,36.93
2018-12-14T22:30:43.582Z,33.67
2018-12-14T22:33:15.996Z,29.77
2018-12-14T22:35:48.590Z,32.00
2018-12-14T22:38:21.031Z,32.60
2018-12-14T22:40:53.620Z,31.37
2018-12-14T22:43:26.008Z,29.53
2018-12-14T22:45:58.492Z,27.23
2018-12-14T22:48:30.953Z,26.57
2018-12-14T22:51:03.441Z,29.83
2018-12-14T22:53:35.765Z,25.57
2018-12-14T22:56:08.158Z,28.87
2018-12-14T22:58:40.689Z,30.90
2018-12-14T23:01:13.244Z,29.13
2018-12-14T23:03:45.559Z,29.00
2018-12-14T23:06:18.034Z,27.57
2018-12-14T23:08:50.351Z,30.10
2018-12-14T23:11:22.854Z,29.97
2018-12-14T23:13:55.267Z,28.20
2018-12-14T23:16:27.632Z,31.10
2018-12-14T23:18:59.965Z,25.73
2018-12-14T23:21:32.461Z,28.67
2018-12-14T23:24:04.779Z,27.37
2018-12-14T23:26:37.177Z,27.27
2018-12-14T23:29:09.489Z,27.37
2018-12-14T23:31:41.941Z,26.37
2018-12-14T23:34:14.259Z,25.77
2018-12-14T23:36:46.608Z,29.40
2018-12-14T23:39:18.925Z,28.60
2018-12-14T23:41:51.225Z,26.87
2018-12-14T23:44:23.653Z,24.23
2018-12-14T23:46:58.869Z,25.23
2018-12-14T23:49:30.471Z,22.47
2018-12-14T23:52:02.811Z,23.87
2018-12-14T23:54:35.133Z,26.60
2018-12-14T23:57:12.233Z,24.13
2018-12-14T23:59:41.881Z,21.87
